Time;durP1;ratioP1;P1;durP2;ratioP2;P2;SDS_P1;SDS_P2;PMS_P1;PMS_P2;Temp;Humidity;BMP_temperature;BMP_pressure;BME280_temperature;BME280_humidity;BME280_pressure;Samples;Min_cycle;Max_cycle;Signal;HPM_P1;HPM_P2
2023/12/09 00:01:22;;;;;;;87.05;37.63;;;;;;;-0.53;100.00;100730.16;5067113;56;1142955;-78
2023/12/09 00:06:28;;;;;;;93.87;37.73;;;;;;;-0.51;100.00;100717.12;5047350;56;1142918;-78
2023/12/09 00:11:33;;;;;;;94.17;38.27;;;;;;;-0.52;100.00;100727.97;5046991;56;1143000;-78
2023/12/09 00:16:42;;;;;;;89.58;36.77;;;;;;;-0.53;100.00;100718.47;5061022;56;1142911;-79
2023/12/09 00:21:47;;;;;;;89.37;38.97;;;;;;;-0.57;100.00;100718.59;5065977;56;1143059;-78
2023/12/09 00:26:53;;;;;;;96.57;41.88;;;;;;;-0.61;100.00;100729.98;5046828;56;1143076;-78
2023/12/09 00:31:58;;;;;;;97.63;40.80;;;;;;;-0.60;100.00;100732.95;5047115;56;1143087;-78
2023/12/09 00:37:04;;;;;;;107.67;42.73;;;;;;;-0.59;100.00;100719.93;4973325;57;1142766;-78
2023/12/09 00:42:11;;;;;;;133.27;52.65;;;;;;;-0.59;100.00;100716.03;5046374;55;1144992;-79
2023/12/09 00:47:17;;;;;;;105.58;41.18;;;;;;;-0.60;100.00;100719.97;4941972;57;1144988;-78
2023/12/09 00:52:22;;;;;;;99.90;39.08;;;;;;;-0.62;100.00;100701.86;5052026;57;1144928;-78
2023/12/09 00:57:28;;;;;;;103.37;41.33;;;;;;;-0.65;100.00;100699.34;5034798;56;1142997;-78
2023/12/09 01:02:34;;;;;;;92.37;40.47;;;;;;;-0.64;100.00;100704.09;5034457;56;1145050;-78
2023/12/09 01:07:40;;;;;;;103.00;42.73;;;;;;;-0.64;100.00;100699.75;5051009;56;1143179;-79
2023/12/09 01:12:46;;;;;;;103.60;43.23;;;;;;;-0.64;100.00;100688.52;5047906;56;1144963;-78
2023/12/09 01:17:51;;;;;;;102.03;45.10;;;;;;;-0.63;100.00;100693.67;5034070;56;1145119;-78
2023/12/09 01:22:57;;;;;;;97.00;40.95;;;;;;;-0.62;100.00;100700.56;5034494;56;1145480;-78
2023/12/09 01:28:03;;;;;;;98.17;41.17;;;;;;;-0.59;100.00;100693.10;5054258;56;1142759;-78
2023/12/09 01:33:09;;;;;;;96.65;40.92;;;;;;;-0.59;100.00;100697.00;5043261;56;1143034;-79
2023/12/09 01:38:14;;;;;;;99.10;38.38;;;;;;;-0.57;100.00;100680.92;5034203;56;1142839;-78
2023/12/09 01:43:20;;;;;;;101.08;41.26;;;;;;;-0.57;100.00;100681.78;5053451;57;1142977;-78
2023/12/09 01:48:26;;;;;;;101.93;42.70;;;;;;;-0.58;100.00;100676.63;5041412;56;1144953;-78
2023/12/09 01:53:32;;;;;;;96.97;41.00;;;;;;;-0.58;100.00;100671.43;5047639;56;1144895;-78
2023/12/09 01:58:39;;;;;;;100.47;39.87;;;;;;;-0.58;100.00;100672.28;5067659;56;1142922;-78
2023/12/09 02:03:45;;;;;;;92.50;38.50;;;;;;;-0.57;100.00;100672.69;5047440;56;1145106;-77
2023/12/09 02:08:50;;;;;;;101.42;39.88;;;;;;;-0.54;100.00;100673.90;5047270;56;1143211;-79
2023/12/09 02:14:08;;;;;;;105.80;41.37;;;;;;;-0.56;100.00;100674.84;5085390;56;1144824;-78
2023/12/09 02:19:15;;;;;;;103.00;40.43;;;;;;;-0.62;100.00;100671.14;5046057;57;1148523;-79
2023/12/09 02:24:21;;;;;;;103.75;43.50;;;;;;;-0.63;100.00;100673.33;5047191;56;1145020;-78
2023/12/09 02:29:29;;;;;;;93.90;37.37;;;;;;;-0.61;100.00;100674.14;5067263;56;1145263;-79
2023/12/09 02:34:38;;;;;;;101.13;41.83;;;;;;;-0.60;100.00;100665.42;5047660;57;1143149;-78
2023/12/09 02:39:44;;;;;;;93.23;38.27;;;;;;;-0.63;100.00;100650.81;4953865;57;1145240;-78
2023/12/09 02:44:50;;;;;;;96.22;39.65;;;;;;;-0.63;100.00;100656.00;5046520;57;1143187;-78
2023/12/09 02:49:56;;;;;;;96.27;38.37;;;;;;;-0.66;100.00;100650.89;5059271;56;1142974;-78
2023/12/09 02:55:01;;;;;;;90.47;36.63;;;;;;;-0.64;100.00;100651.70;5034986;56;1142900;-78
2023/12/09 03:00:08;;;;;;;101.30;40.43;;;;;;;-0.65;100.00;100652.59;5034382;56;1143031;-78
2023/12/09 03:05:14;;;;;;;98.20;42.07;;;;;;;-0.63;100.00;100643.02;5055173;56;1144983;-78
2023/12/09 03:10:19;;;;;;;101.10;40.92;;;;;;;-0.63;100.00;100654.70;5034453;56;1142985;-78
2023/12/09 03:15:25;;;;;;;91.03;40.27;;;;;;;-0.60;100.00;100656.34;5035167;56;1145037;-78
2023/12/09 03:20:31;;;;;;;95.07;39.80;;;;;;;-0.58;100.00;100649.35;5054949;56;1142889;-78
2023/12/09 03:25:36;;;;;;;100.43;39.27;;;;;;;-0.57;100.00;100649.31;5035252;56;1143175;-78
2023/12/09 03:30:42;;;;;;;106.67;41.47;;;;;;;-0.56;100.00;100633.28;5034086;56;1145001;-78
2023/12/09 03:35:47;;;;;;;104.93;41.43;;;;;;;-0.53;100.00;100636.64;5035151;57;1145200;-78
2023/12/09 03:40:53;;;;;;;95.93;38.83;;;;;;;-0.53;100.00;100651.38;5053566;57;1145323;-78
2023/12/09 03:45:59;;;;;;;97.73;39.63;;;;;;;-0.50;100.00;100640.90;5035171;57;1143395;-78
2023/12/09 03:51:05;;;;;;;98.70;40.43;;;;;;;-0.49;100.00;100636.11;5038836;56;1143301;-78
2023/12/09 03:56:14;;;;;;;95.57;37.77;;;;;;;-0.45;100.00;100626.00;5064844;56;1142986;-78
2023/12/09 04:01:22;;;;;;;101.33;40.95;;;;;;;-0.42;100.00;100631.95;5046614;56;1142841;-78
2023/12/09 04:06:26;;;;;;;101.70;40.60;;;;;;;-0.45;100.00;100628.59;5045688;56;1146294;-78
2023/12/09 04:11:32;;;;;;;95.93;39.00;;;;;;;-0.46;100.00;100629.52;5065016;57;1145400;-78
2023/12/09 04:16:37;;;;;;;91.73;37.70;;;;;;;-0.49;100.00;100623.97;5045955;57;1143021;-78
2023/12/09 04:21:43;;;;;;;101.57;42.17;;;;;;;-0.45;100.00;100631.20;5045886;57;1143148;-78
2023/12/09 04:26:48;;;;;;;95.45;38.92;;;;;;;-0.45;100.00;100633.34;5045547;57;1144957;-78
2023/12/09 04:31:54;;;;;;;93.77;40.43;;;;;;;-0.49;100.00;100627.86;5055024;56;1143106;-78
2023/12/09 04:37:00;;;;;;;105.30;40.37;;;;;;;-0.52;100.00;100639.64;5045552;57;1143109;-78
2023/12/09 04:42:06;;;;;;;99.30;42.25;;;;;;;-0.54;100.00;100636.69;5045658;57;1145078;-78
2023/12/09 04:47:11;;;;;;;104.03;39.40;;;;;;;-0.57;100.00;100625.94;5066546;56;1142813;-78
2023/12/09 04:52:17;;;;;;;107.03;39.58;;;;;;;-0.52;100.00;100625.35;5046111;56;1145046;-78
2023/12/09 04:57:23;;;;;;;106.40;41.15;;;;;;;-0.47;100.00;100623.92;5000864;56;1144912;-78
2023/12/09 05:02:28;;;;;;;122.05;47.48;;;;;;;-0.51;100.00;100625.76;5017125;56;1144861;-78
2023/12/09 05:07:34;;;;;;;119.30;45.08;;;;;;;-0.51;100.00;100623.16;4984619;57;1144986;-78
2023/12/09 05:12:40;;;;;;;93.53;41.53;;;;;;;-0.48;100.00;100626.97;5047024;56;1145177;-78
2023/12/09 05:17:47;;;;;;;96.20;40.83;;;;;;;-0.45;100.00;100625.55;5047788;56;1143175;-78
2023/12/09 05:22:52;;;;;;;113.80;42.67;;;;;;;-0.47;100.00;100629.97;5067428;56;1142976;-78
2023/12/09 05:27:58;;;;;;;95.33;43.60;;;;;;;-0.47;100.00;100617.43;5046991;56;1144949;-78
2023/12/09 05:33:04;;;;;;;102.95;43.23;;;;;;;-0.48;100.00;100617.88;5046829;57;1143144;-78
2023/12/09 05:38:09;;;;;;;113.03;45.20;;;;;;;-0.48;100.00;100622.22;4973263;56;1145053;-78
2023/12/09 05:43:15;;;;;;;98.00;45.03;;;;;;;-0.48;100.00;100622.22;5047708;56;1145012;-79
2023/12/09 05:48:22;;;;;;;96.53;42.17;;;;;;;-0.38;100.00;100625.78;4954468;56;1143014;-78
2023/12/09 05:53:27;;;;;;;95.67;41.27;;;;;;;-0.37;100.00;100632.67;4972833;57;1142866;-78
2023/12/09 05:58:33;;;;;;;105.67;44.33;;;;;;;-0.34;100.00;100631.73;5032653;56;1143210;-78
2023/12/09 06:03:38;;;;;;;109.53;45.47;;;;;;;-0.34;100.00;100630.89;5033749;56;1145146;-78
2023/12/09 06:08:44;;;;;;;106.83;47.50;;;;;;;-0.32;100.00;100636.44;5033556;56;1145612;-78
2023/12/09 06:13:49;;;;;;;108.70;46.60;;;;;;;-0.33;100.00;100629.54;5053556;56;1145024;-78
2023/12/09 06:18:55;;;;;;;110.17;46.10;;;;;;;-0.33;100.00;100624.80;5034020;56;1145297;-78
2023/12/09 06:24:01;;;;;;;108.13;47.37;;;;;;;-0.31;100.00;100625.59;5034321;55;1145086;-78
2023/12/09 06:29:06;;;;;;;123.63;50.67;;;;;;;-0.32;100.00;100618.70;5053358;57;1145024;-78
2023/12/09 06:34:12;;;;;;;136.87;57.33;;;;;;;-0.33;100.00;100625.64;5032260;56;1144928;-78
2023/12/09 06:39:17;;;;;;;111.67;48.70;;;;;;;-0.32;100.00;100621.30;5018487;56;1145006;-78
2023/12/09 06:44:23;;;;;;;103.10;45.25;;;;;;;-0.30;100.00;100618.17;4983046;57;1145136;-79
2023/12/09 06:49:28;;;;;;;96.77;44.63;;;;;;;-0.27;100.00;100624.58;5034240;55;1145029;-78
2023/12/09 06:54:34;;;;;;;105.13;46.97;;;;;;;-0.25;100.00;100626.23;5033788;56;1142954;-79
2023/12/09 06:59:39;;;;;;;100.23;46.60;;;;;;;-0.23;100.00;100615.80;5053724;56;1145055;-78
2023/12/09 07:04:45;;;;;;;139.97;61.23;;;;;;;-0.24;100.00;100616.25;5034578;56;1145175;-79
2023/12/09 07:09:50;;;;;;;529.63;188.27;;;;;;;-0.27;100.00;100612.44;5034671;56;1145201;-78
2023/12/09 07:14:56;;;;;;;114.30;52.47;;;;;;;-0.25;100.00;100611.09;5054555;56;1147336;-79
2023/12/09 07:20:04;;;;;;;107.37;45.07;;;;;;;-0.25;100.00;100597.66;5034694;56;1145083;-79
2023/12/09 07:25:09;;;;;;;100.27;45.73;;;;;;;-0.17;100.00;100602.62;5034741;56;1145105;-79
2023/12/09 07:30:16;;;;;;;104.25;45.12;;;;;;;-0.12;100.00;100596.80;5070867;56;1144740;-80
2023/12/09 07:35:21;;;;;;;129.03;56.57;;;;;;;-0.09;100.00;100599.31;5035188;57;1150919;-79
2023/12/09 07:40:27;;;;;;;106.00;46.03;;;;;;;-0.08;100.00;100594.52;4980187;57;1145233;-78
2023/12/09 07:45:33;;;;;;;129.70;63.42;;;;;;;-0.05;100.00;100598.31;5005340;57;1145170;-79
2023/12/09 07:50:38;;;;;;;98.90;44.40;;;;;;;-0.04;100.00;100594.38;4887395;58;1144976;-79
2023/12/09 07:55:44;;;;;;;113.57;47.63;;;;;;;-0.03;100.00;100587.42;4953289;57;1142853;-78
2023/12/09 08:00:50;;;;;;;104.43;44.73;;;;;;;-0.02;100.00;100591.27;4995981;56;1145139;-79
2023/12/09 08:05:55;;;;;;;140.07;62.10;;;;;;;0.01;100.00;100586.39;5051326;56;1144743;-79
2023/12/09 08:11:01;;;;;;;119.20;58.33;;;;;;;0.07;100.00;100590.11;5040511;56;1142783;-77
2023/12/09 08:16:07;;;;;;;93.27;45.00;;;;;;;0.12;100.00;100584.76;5026754;57;1142473;-78
2023/12/09 08:21:13;;;;;;;94.03;45.60;;;;;;;0.17;100.00;100579.78;5004485;57;1140739;-79
2023/12/09 08:26:19;;;;;;;96.87;45.47;;;;;;;0.24;100.00;100585.64;4981862;57;1140806;-79
2023/12/09 08:31:26;;;;;;;99.15;44.90;;;;;;;0.27;100.00;100579.03;5014400;56;1140883;-79
2023/12/09 08:36:32;;;;;;;98.57;47.03;;;;;;;0.23;100.00;100574.83;5006242;57;1140842;-79
2023/12/09 08:41:41;;;;;;;102.43;46.77;;;;;;;0.24;100.00;100572.18;4964010;58;1140874;-78
2023/12/09 08:46:46;;;;;;;101.53;43.80;;;;;;;0.24;100.00;100566.98;5001437;56;1142973;-78
2023/12/09 08:51:52;;;;;;;96.90;46.65;;;;;;;0.29;100.00;100578.09;5021177;56;1143024;-78
2023/12/09 08:56:57;;;;;;;90.97;44.53;;;;;;;0.38;100.00;100572.16;5066471;56;1140765;-79
2023/12/09 09:02:03;;;;;;;116.23;56.90;;;;;;;0.44;100.00;100566.75;5039475;55;1141001;-79
2023/12/09 09:07:09;;;;;;;97.53;44.70;;;;;;;0.47;100.00;100573.97;5013119;56;1142984;-78
2023/12/09 09:12:14;;;;;;;256.30;104.67;;;;;;;0.51;100.00;100568.20;5054725;57;1140730;-78
2023/12/09 09:17:20;;;;;;;219.60;76.43;;;;;;;0.55;100.00;100584.97;5034885;57;1145141;-79
2023/12/09 09:22:25;;;;;;;150.53;65.40;;;;;;;0.56;100.00;100578.86;5035176;57;1142833;-76
2023/12/09 09:27:31;;;;;;;130.80;68.75;;;;;;;0.55;100.00;100576.31;5055520;57;1143409;-79
2023/12/09 09:32:36;;;;;;;91.93;45.77;;;;;;;0.56;100.00;100562.40;5015441;56;1143063;-78
2023/12/09 09:37:42;;;;;;;99.60;47.90;;;;;;;0.59;100.00;100561.00;5001075;55;1140854;-79
2023/12/09 09:43:07;;;;;;;112.10;52.03;;;;;;;0.60;100.00;100549.23;4995311;56;1140821;-79
2023/12/09 09:48:16;;;;;;;177.13;64.73;;;;;;;0.66;100.00;100541.18;4968729;56;1142799;-77
2023/12/09 09:53:29;;;;;;;168.77;67.93;;;;;;;0.73;100.00;100533.16;4994253;57;1143096;-78
2023/12/09 09:58:35;;;;;;;124.42;50.40;;;;;;;0.69;100.00;100533.72;4994740;57;1143252;-79
2023/12/09 10:03:41;;;;;;;93.70;40.13;;;;;;;0.67;100.00;100522.06;5018984;57;1142970;-77
2023/12/09 10:08:47;;;;;;;118.13;53.13;;;;;;;0.69;100.00;100514.20;5005392;56;1140741;-75
2023/12/09 10:13:52;;;;;;;114.90;49.47;;;;;;;0.68;100.00;100516.41;5003106;57;1142993;-73
2023/12/09 10:18:58;;;;;;;118.90;52.60;;;;;;;0.68;100.00;100504.69;5033340;56;1142967;-77
2023/12/09 10:24:05;;;;;;;186.37;68.23;;;;;;;0.73;100.00;100494.97;5003980;56;1142701;-77
2023/12/09 10:29:12;;;;;;;244.63;91.27;;;;;;;0.76;100.00;100485.75;5036276;56;1143014;-77
2023/12/09 10:34:18;;;;;;;172.43;70.37;;;;;;;0.81;100.00;100475.14;5046695;57;1196906;-75
2023/12/09 10:39:25;;;;;;;118.80;50.03;;;;;;;0.82;100.00;100474.23;5014889;56;1142790;-76
2023/12/09 10:44:33;;;;;;;110.08;52.20;;;;;;;0.80;100.00;100469.08;4996383;57;1143014;-78
2023/12/09 10:49:39;;;;;;;115.53;46.67;;;;;;;0.82;100.00;100464.67;5020493;57;1143153;-78
2023/12/09 10:54:44;;;;;;;130.50;57.47;;;;;;;0.82;100.00;100462.52;4996730;55;1142881;-78
2023/12/09 10:59:50;;;;;;;128.27;53.83;;;;;;;0.84;100.00;100456.35;4997410;57;1142704;-76
2023/12/09 11:04:57;;;;;;;124.87;48.77;;;;;;;0.90;100.00;100457.42;5021724;56;1142934;-76
2023/12/09 11:10:11;;;;;;;108.13;43.93;;;;;;;0.90;100.00;100457.42;5012145;56;1142924;-76
2023/12/09 11:15:28;;;;;;;138.63;50.87;;;;;;;0.94;100.00;100458.13;5003015;56;1142885;-75
2023/12/09 11:20:30;;;;;;;125.27;48.65;;;;;;;0.94;100.00;100456.83;5039474;56;1143146;-76
2023/12/09 11:25:42;;;;;;;117.75;47.17;;;;;;;0.96;100.00;100457.63;5031097;56;1143079;-77
2023/12/09 11:30:48;;;;;;;127.73;54.77;;;;;;;0.98;100.00;100446.70;5005297;56;1142811;-77
2023/12/09 11:35:56;;;;;;;102.47;42.10;;;;;;;1.03;100.00;100445.62;5046125;56;1143057;-77
2023/12/09 11:41:02;;;;;;;117.13;46.50;;;;;;;1.03;100.00;100448.67;5066138;56;1142778;-78
2023/12/09 11:46:07;;;;;;;106.00;41.93;;;;;;;1.05;100.00;100446.86;5045744;56;1142978;-78
2023/12/09 11:51:13;;;;;;;109.57;45.93;;;;;;;1.03;100.00;100441.71;5046130;57;1142856;-78
2023/12/09 11:56:19;;;;;;;140.00;51.13;;;;;;;1.04;100.00;100437.35;5078366;55;1142849;-78
2023/12/09 12:01:27;;;;;;;104.97;44.73;;;;;;;1.08;100.00;100430.24;5045969;56;1143095;-77
2023/12/09 12:06:33;;;;;;;96.28;41.90;;;;;;;1.10;100.00;100424.52;5043360;56;1143258;-78
2023/12/09 12:11:38;;;;;;;96.97;40.75;;;;;;;1.12;100.00;100424.01;5047279;56;1141027;-79
2023/12/09 12:16:44;;;;;;;103.67;44.07;;;;;;;1.15;100.00;100413.47;5029730;56;1140461;-79
2023/12/09 12:21:56;;;;;;;135.35;52.53;;;;;;;1.15;100.00;100404.36;4957712;57;1143172;-77
2023/12/09 12:27:04;;;;;;;147.50;55.53;;;;;;;1.18;100.00;100398.58;5053653;56;1142914;-78
2023/12/09 12:32:19;;;;;;;121.30;51.43;;;;;;;1.24;100.00;100397.45;5027323;57;1142924;-77
2023/12/09 12:37:20;;;;;;;148.60;55.83;;;;;;;1.30;100.00;100398.06;5080829;56;1142804;-76
2023/12/09 12:42:26;;;;;;;146.37;63.13;;;;;;;1.37;100.00;100397.36;5029275;56;1142732;-77
2023/12/09 12:47:31;;;;;;;113.60;52.00;;;;;;;1.37;100.00;100396.06;4996776;56;1143023;-79
2023/12/09 12:52:37;;;;;;;135.13;55.47;;;;;;;1.38;100.00;100395.12;4863658;58;1143282;-77
2023/12/09 12:57:43;;;;;;;142.63;60.67;;;;;;;1.38;100.00;100395.12;4976860;57;1142873;-78
2023/12/09 13:02:49;;;;;;;217.05;86.37;;;;;;;1.38;100.00;100388.61;5027813;56;1142819;-77
2023/12/09 13:07:55;;;;;;;229.07;92.33;;;;;;;1.40;100.00;100383.73;5035880;57;1143161;-78
2023/12/09 13:13:00;;;;;;;168.45;69.95;;;;;;;1.44;100.00;100366.21;5027288;57;1143076;-77
2023/12/09 13:18:06;;;;;;;308.00;130.07;;;;;;;1.48;100.00;100361.27;4991637;57;1142864;-78
2023/12/09 13:23:12;;;;;;;205.33;72.97;;;;;;;1.51;100.00;100358.99;4988386;56;1144896;-77
2023/12/09 13:28:18;;;;;;;140.87;59.20;;;;;;;1.55;100.00;100354.02;4960134;57;1142753;-79
2023/12/09 13:33:24;;;;;;;147.30;59.47;;;;;;;1.51;100.00;100342.05;5068244;56;1143096;-78
2023/12/09 13:38:29;;;;;;;211.68;83.05;;;;;;;1.47;100.00;100341.78;5048443;56;1143104;-78
2023/12/09 13:43:35;;;;;;;212.32;76.70;;;;;;;1.41;100.00;100332.46;4988012;56;1143130;-77
2023/12/09 13:48:41;;;;;;;179.32;72.16;;;;;;;1.40;100.00;100326.86;4983429;57;1143153;-76
2023/12/09 13:53:47;;;;;;;208.30;74.90;;;;;;;1.38;100.00;100326.08;4966206;57;1142928;-76
2023/12/09 13:58:52;;;;;;;132.25;54.30;;;;;;;1.38;100.00;100320.41;4966346;56;1142843;-76
2023/12/09 14:03:59;;;;;;;135.37;53.60;;;;;;;1.38;100.00;100310.44;5045219;56;1142871;-76
2023/12/09 14:09:07;;;;;;;129.23;51.60;;;;;;;1.38;100.00;100311.74;4998646;57;1142684;-77
2023/12/09 14:14:12;;;;;;;135.33;52.23;;;;;;;1.39;100.00;100306.47;4996485;57;1143078;-77
2023/12/09 14:19:17;;;;;;;170.17;60.20;;;;;;;1.39;100.00;100309.53;4997668;57;1142873;-75
2023/12/09 14:24:23;;;;;;;120.90;48.90;;;;;;;1.39;100.00;100314.28;5041842;56;1143097;-77
2023/12/09 14:29:29;;;;;;;132.57;50.08;;;;;;;1.35;100.00;100317.11;5019204;56;1142968;-76
2023/12/09 14:34:35;;;;;;;151.95;56.88;;;;;;;1.35;100.00;100321.02;5046847;56;1142981;-76
2023/12/09 14:39:41;;;;;;;140.83;53.60;;;;;;;1.37;100.00;100316.59;5021275;56;1142954;-77
2023/12/09 14:44:47;;;;;;;128.80;54.30;;;;;;;1.38;100.00;100305.23;5024264;56;1143064;-82
2023/12/09 14:49:53;;;;;;;137.80;54.90;;;;;;;1.37;100.00;100300.96;5001179;56;1143155;-80
2023/12/09 14:54:59;;;;;;;130.27;54.83;;;;;;;1.37;100.00;100303.56;5054850;56;1143222;-80
2023/12/09 15:00:05;;;;;;;195.13;86.20;;;;;;;1.36;100.00;100287.09;5026346;56;1143037;-81
2023/12/09 15:05:11;;;;;;;126.97;52.93;;;;;;;1.34;100.00;100285.45;5022258;57;1142963;-75
2023/12/09 15:10:17;;;;;;;102.87;46.80;;;;;;;1.35;100.00;100292.36;5063420;56;1142643;-76
2023/12/09 15:15:23;;;;;;;103.10;51.03;;;;;;;1.35;100.00;100282.79;5043458;55;1142793;-72
2023/12/09 15:20:29;;;;;;;315.30;111.70;;;;;;;1.34;100.00;100282.39;5045263;55;1142865;-78
2023/12/09 15:25:34;;;;;;;150.57;58.08;;;;;;;1.35;100.00;100282.79;5065361;55;1144940;-77
2023/12/09 15:30:40;;;;;;;142.23;60.30;;;;;;;1.39;100.00;100284.78;5045611;56;1142807;-77
2023/12/09 15:35:49;;;;;;;107.50;50.90;;;;;;;1.37;100.00;100274.91;5038760;57;1142914;-79
2023/12/09 15:40:55;;;;;;;89.13;43.95;;;;;;;1.33;100.00;100262.46;5046270;56;1142896;-79
2023/12/09 15:46:01;;;;;;;84.63;42.20;;;;;;;1.32;100.00;100265.13;5066585;56;1140889;-71
2023/12/09 15:51:07;;;;;;;79.63;39.50;;;;;;;1.30;100.00;100251.32;5043026;57;1140663;-74
2023/12/09 15:56:13;;;;;;;83.10;40.33;;;;;;;1.27;100.00;100243.63;5046033;57;1141068;-79
2023/12/09 16:01:19;;;;;;;72.50;40.93;;;;;;;1.26;100.00;100244.55;5025282;56;1140616;-84
2023/12/09 16:06:25;;;;;;;87.73;42.70;;;;;;;1.28;100.00;100245.33;5041222;57;1140769;-72
2023/12/09 16:11:33;;;;;;;109.90;48.93;;;;;;;1.33;100.00;100238.17;5014157;56;1146582;-73
2023/12/09 16:16:39;;;;;;;81.35;44.58;;;;;;;1.36;100.00;100238.04;5018358;57;1143126;-78
2023/12/09 16:21:46;;;;;;;128.97;57.63;;;;;;;1.35;100.00;100226.77;4997978;57;1141000;-86
2023/12/09 16:26:52;;;;;;;75.63;39.17;;;;;;;1.36;100.00;100224.55;5003149;56;1142981;-84
2023/12/09 16:31:57;;;;;;;74.70;38.10;;;;;;;1.35;100.00;100207.23;5055826;57;1140956;-82
2023/12/09 16:37:03;;;;;;;74.60;37.90;;;;;;;1.36;100.00;100201.56;5000885;56;1141020;-82
2023/12/09 16:42:09;;;;;;;70.10;36.77;;;;;;;1.32;100.00;100193.48;5000243;56;1141127;-78
2023/12/09 16:47:15;;;;;;;67.72;35.95;;;;;;;1.33;100.00;100192.12;5028366;56;1141046;-80
2023/12/09 16:52:21;;;;;;;78.37;40.40;;;;;;;1.35;100.00;100196.81;4994606;56;1140853;-82
2023/12/09 16:57:27;;;;;;;73.03;39.20;;;;;;;1.37;100.00;100196.74;5002002;56;1141127;-77
2023/12/09 17:02:33;;;;;;;121.17;56.68;;;;;;;1.40;100.00;100178.34;5048716;56;1140749;-83
2023/12/09 17:07:39;;;;;;;124.05;64.30;;;;;;;1.43;100.00;100160.42;5000519;56;1142826;-79
2023/12/09 17:12:44;;;;;;;92.10;44.33;;;;;;;1.43;100.00;100150.00;5045742;57;1142813;-78
2023/12/09 17:17:50;;;;;;;98.80;44.50;;;;;;;1.41;100.00;100138.34;5014221;56;1140974;-77
2023/12/09 17:22:56;;;;;;;76.73;42.10;;;;;;;1.38;100.00;100133.27;5022729;57;1140890;-78
2023/12/09 17:28:02;;;;;;;96.03;46.07;;;;;;;1.36;100.00;100122.10;5013167;56;1140997;-76
2023/12/09 17:33:07;;;;;;;66.93;36.70;;;;;;;1.33;100.00;100128.30;4949532;57;1140892;-78
2023/12/09 17:38:13;;;;;;;76.87;37.03;;;;;;;1.32;100.00;100110.97;4972979;57;1140805;-79
2023/12/09 17:43:19;;;;;;;64.37;33.00;;;;;;;1.32;100.00;100103.16;4954541;57;1141015;-76
2023/12/09 17:48:25;;;;;;;68.33;36.30;;;;;;;1.33;100.00;100094.88;4952601;57;1140837;-80
2023/12/09 17:53:33;;;;;;;83.22;41.50;;;;;;;1.33;100.00;100090.97;5037434;56;1141095;-81
2023/12/09 17:58:39;;;;;;;81.82;38.42;;;;;;;1.33;100.00;100072.28;4954264;57;1140823;-81
2023/12/09 18:03:46;;;;;;;89.00;44.20;;;;;;;1.35;100.00;100052.67;4953222;57;1140811;-79
2023/12/09 18:08:52;;;;;;;79.50;39.38;;;;;;;1.35;100.00;100046.16;5003660;55;1140915;-80
2023/12/09 18:13:57;;;;;;;76.07;37.37;;;;;;;1.34;100.00;100032.29;5025589;57;1141081;-81
2023/12/09 18:19:04;;;;;;;95.13;41.80;;;;;;;1.30;100.00;100032.04;4916038;58;1140928;-80
2023/12/09 18:24:13;;;;;;;100.57;48.03;;;;;;;1.27;100.00;100023.52;5010536;56;1140880;-77
2023/12/09 18:29:20;;;;;;;155.50;81.93;;;;;;;1.23;100.00;100018.05;5012538;56;1142819;-79
2023/12/09 18:34:26;;;;;;;109.03;58.33;;;;;;;1.21;100.00;100013.41;4993800;57;1142822;-77
2023/12/09 18:39:33;;;;;;;105.97;53.17;;;;;;;1.20;100.00;100021.67;4986102;57;1142732;-80
2023/12/09 18:44:38;;;;;;;97.53;43.65;;;;;;;1.20;100.00;100019.08;5010020;57;1142933;-77
2023/12/09 18:49:45;;;;;;;64.30;33.87;;;;;;;1.20;100.00;100020.37;4994129;57;1140802;-79
2023/12/09 18:54:51;;;;;;;89.05;43.25;;;;;;;1.19;100.00;100015.23;5110168;56;1141099;-78
2023/12/09 18:59:56;;;;;;;87.07;40.73;;;;;;;1.15;100.00;100005.87;5125490;55;1140794;-80
2023/12/09 19:05:02;;;;;;;69.20;34.27;;;;;;;1.06;100.00;99982.42;5034409;56;1140903;-79
2023/12/09 19:10:08;;;;;;;102.33;40.70;;;;;;;1.01;100.00;99959.20;5034628;56;1138819;-77
2023/12/09 19:15:15;;;;;;;94.10;45.97;;;;;;;0.97;100.00;99955.50;5055200;56;1140942;-80
2023/12/09 19:20:21;;;;;;;104.73;52.40;;;;;;;0.91;100.00;99944.09;5031781;56;1138887;-77
2023/12/09 19:25:27;;;;;;;88.63;40.10;;;;;;;0.87;100.00;99929.06;4959982;57;1140904;-79
2023/12/09 19:30:32;;;;;;;105.93;45.73;;;;;;;0.84;100.00;99927.06;4972519;57;1138836;-76
2023/12/09 19:35:38;;;;;;;110.70;48.38;;;;;;;0.80;100.00;99919.00;4952442;57;1140700;-81
2023/12/09 19:40:44;;;;;;;122.03;53.93;;;;;;;0.81;100.00;99930.64;4953298;57;1140922;-77
2023/12/09 19:45:50;;;;;;;92.40;44.73;;;;;;;0.85;100.00;99934.80;4964298;56;1141020;-78
2023/12/09 19:50:55;;;;;;;90.53;45.57;;;;;;;0.87;100.00;99917.81;4990135;57;1138939;-79
2023/12/09 19:56:01;;;;;;;89.13;42.53;;;;;;;0.86;100.00;99922.63;5008697;56;1138904;-79
2023/12/09 20:01:08;;;;;;;90.60;45.90;;;;;;;0.82;100.00;99931.49;5015118;56;1138755;-81
2023/12/09 20:06:15;;;;;;;78.00;38.27;;;;;;;0.74;100.00;99917.55;4961207;57;1138857;-80
2023/12/09 20:11:20;;;;;;;154.43;58.20;;;;;;;0.67;100.00;99913.53;4824843;58;1138839;-78
2023/12/09 20:16:26;;;;;;;96.10;43.40;;;;;;;0.59;100.00;99880.08;5002278;56;1141173;-77
2023/12/09 20:21:34;;;;;;;114.43;54.43;;;;;;;0.52;100.00;99895.58;5016376;56;1138844;-77
2023/12/09 20:26:41;;;;;;;73.17;35.43;;;;;;;0.52;100.00;99874.77;4945634;56;1141155;-80
2023/12/09 20:31:46;;;;;;;106.10;44.20;;;;;;;0.53;100.00;99869.95;4942044;57;1138705;-80
2023/12/09 20:36:56;;;;;;;94.33;38.47;;;;;;;0.57;100.00;99861.09;4955999;57;1140901;-79
2023/12/09 20:41:59;;;;;;;204.93;77.63;;;;;;;0.61;100.00;99855.30;5000411;57;1138887;-79
2023/12/09 20:47:05;;;;;;;523.40;213.27;;;;;;;0.63;100.00;99835.22;4980599;57;1140870;-79
2023/12/09 20:52:11;;;;;;;105.00;51.33;;;;;;;0.63;100.00;99824.81;4914189;57;1143054;-81
2023/12/09 20:57:17;;;;;;;92.10;40.87;;;;;;;0.61;100.00;99817.56;5053302;56;1140934;-80
2023/12/09 21:02:24;;;;;;;103.73;50.97;;;;;;;0.62;100.00;99815.31;5033107;57;1138849;-82
2023/12/09 21:07:29;;;;;;;86.73;41.33;;;;;;;0.61;100.00;99794.15;5053039;56;1140954;-77
2023/12/09 21:12:35;;;;;;;72.72;32.83;;;;;;;0.66;100.00;99791.69;5053999;56;1138916;-81
2023/12/09 21:17:41;;;;;;;76.37;35.48;;;;;;;0.70;100.00;99775.02;5034884;56;1138930;-79
2023/12/09 21:22:47;;;;;;;106.80;46.57;;;;;;;0.74;100.00;99749.69;5035320;56;1138669;-80
2023/12/09 21:27:52;;;;;;;76.05;37.13;;;;;;;0.77;100.00;99744.30;5020382;57;1141205;-77
2023/12/09 21:32:59;;;;;;;114.00;53.67;;;;;;;0.80;100.00;99752.42;5065967;57;1138711;-77
2023/12/09 21:38:05;;;;;;;271.20;115.20;;;;;;;0.84;100.00;99739.65;5043996;57;1140716;-80
2023/12/09 21:43:11;;;;;;;95.92;44.40;;;;;;;0.81;100.00;99743.24;5036122;57;1142970;-79
2023/12/09 21:48:17;;;;;;;81.07;36.60;;;;;;;0.79;100.00;99724.25;5056810;57;1138867;-77
2023/12/09 21:53:22;;;;;;;72.67;33.50;;;;;;;0.75;100.00;99720.14;5045886;56;1138921;-79
2023/12/09 21:58:28;;;;;;;102.43;41.60;;;;;;;0.75;100.00;99731.86;5041540;57;1138902;-75
2023/12/09 22:03:34;;;;;;;125.57;57.47;;;;;;;0.75;100.00;99722.75;4994477;56;1147326;-79
2023/12/09 22:08:41;;;;;;;101.13;43.27;;;;;;;0.73;100.00;99716.77;4978520;57;1141188;-79
2023/12/09 22:13:46;;;;;;;80.57;37.83;;;;;;;0.75;100.00;99723.20;5005058;56;1141073;-82
2023/12/09 22:18:52;;;;;;;70.70;33.30;;;;;;;0.74;100.00;99717.16;5016347;56;1138810;-79
2023/12/09 22:23:58;;;;;;;72.50;31.63;;;;;;;0.68;100.00;99712.25;5002006;56;1138908;-80